sensor_id;sensor_type;location;lat;lon;timestamp;temperature;humidity
6106;DHT22;3083;51.508;7.966;2022-08-21T00:01:59;15.00;99.90
6106;DHT22;3083;51.508;7.966;2022-08-21T00:04:26;15.00;99.90
6106;DHT22;3083;51.508;7.966;2022-08-21T00:06:53;15.00;99.90
6106;DHT22;3083;51.508;7.966;2022-08-21T00:09:20;15.00;99.90
6106;DHT22;3083;51.508;7.966;2022-08-21T00:11:48;15.00;99.90
6106;DHT22;3083;51.508;7.966;2022-08-21T00:14:15;15.00;99.90
6106;DHT22;3083;51.508;7.966;2022-08-21T00:16:43;15.00;99.90
6106;DHT22;3083;51.508;7.966;2022-08-21T00:19:11;15.00;99.90
6106;DHT22;3083;51.508;7.966;2022-08-21T00:21:38;15.00;99.90
6106;DHT22;3083;51.508;7.966;2022-08-21T00:24:05;15.00;99.90
6106;DHT22;3083;51.508;7.966;2022-08-21T00:26:32;15.00;99.90
6106;DHT22;3083;51.508;7.966;2022-08-21T00:28:59;15.00;99.90
6106;DHT22;3083;51.508;7.966;2022-08-21T00:31:26;15.00;99.90
6106;DHT22;3083;51.508;7.966;2022-08-21T00:33:53;15.00;99.90
6106;DHT22;3083;51.508;7.966;2022-08-21T00:36:21;15.00;99.90
6106;DHT22;3083;51.508;7.966;2022-08-21T00:38:48;14.90;99.90
6106;DHT22;3083;51.508;7.966;2022-08-21T00:41:15;14.90;99.90
6106;DHT22;3083;51.508;7.966;2022-08-21T00:43:42;14.90;99.90
6106;DHT22;3083;51.508;7.966;2022-08-21T00:46:09;14.80;99.90
6106;DHT22;3083;51.508;7.966;2022-08-21T00:48:36;14.80;99.90
6106;DHT22;3083;51.508;7.966;2022-08-21T00:51:07;14.80;99.90
6106;DHT22;3083;51.508;7.966;2022-08-21T00:53:38;14.70;99.90
6106;DHT22;3083;51.508;7.966;2022-08-21T00:56:07;14.60;99.90
6106;DHT22;3083;51.508;7.966;2022-08-21T00:58:36;14.50;99.90
6106;DHT22;3083;51.508;7.966;2022-08-21T01:01:05;14.50;99.90
6106;DHT22;3083;51.508;7.966;2022-08-21T01:03:34;14.50;99.90
6106;DHT22;3083;51.508;7.966;2022-08-21T01:06:02;14.40;99.90
6106;DHT22;3083;51.508;7.966;2022-08-21T01:08:30;14.40;99.90
6106;DHT22;3083;51.508;7.966;2022-08-21T01:10:59;14.30;99.90
6106;DHT22;3083;51.508;7.966;2022-08-21T01:13:29;14.20;99.90
6106;DHT22;3083;51.508;7.966;2022-08-21T01:15:58;14.10;99.90
6106;DHT22;3083;51.508;7.966;2022-08-21T01:18:26;14.00;99.90
6106;DHT22;3083;51.508;7.966;2022-08-21T01:21:13;14.00;99.90
6106;DHT22;3083;51.508;7.966;2022-08-21T01:23:43;13.90;99.90
6106;DHT22;3083;51.508;7.966;2022-08-21T01:26:12;13.80;99.90
6106;DHT22;3083;51.508;7.966;2022-08-21T01:28:42;13.80;99.90
6106;DHT22;3083;51.508;7.966;2022-08-21T01:31:12;13.80;99.90
6106;DHT22;3083;51.508;7.966;2022-08-21T01:33:40;13.80;99.90
6106;DHT22;3083;51.508;7.966;2022-08-21T01:36:07;13.90;99.90
6106;DHT22;3083;51.508;7.966;2022-08-21T01:38:36;13.90;99.90
6106;DHT22;3083;51.508;7.966;2022-08-21T01:41:03;13.80;99.90
6106;DHT22;3083;51.508;7.966;2022-08-21T01:43:30;13.80;99.90
6106;DHT22;3083;51.508;7.966;2022-08-21T01:45:57;13.90;99.90
6106;DHT22;3083;51.508;7.966;2022-08-21T01:48:24;13.90;99.90
6106;DHT22;3083;51.508;7.966;2022-08-21T01:50:51;13.90;99.90
6106;DHT22;3083;51.508;7.966;2022-08-21T01:53:18;14.00;99.90
6106;DHT22;3083;51.508;7.966;2022-08-21T01:55:46;14.00;99.90
6106;DHT22;3083;51.508;7.966;2022-08-21T01:58:13;14.10;99.90
6106;DHT22;3083;51.508;7.966;2022-08-21T02:00:40;14.10;99.90
6106;DHT22;3083;51.508;7.966;2022-08-21T02:03:08;14.10;99.90
6106;DHT22;3083;51.508;7.966;2022-08-21T02:05:35;14.20;99.90
6106;DHT22;3083;51.508;7.966;2022-08-21T02:08:03;14.30;99.90
6106;DHT22;3083;51.508;7.966;2022-08-21T02:10:32;14.30;99.90
6106;DHT22;3083;51.508;7.966;2022-08-21T02:13:01;14.40;99.90
6106;DHT22;3083;51.508;7.966;2022-08-21T02:15:29;14.40;99.90
6106;DHT22;3083;51.508;7.966;2022-08-21T02:17:59;14.40;99.90
6106;DHT22;3083;51.508;7.966;2022-08-21T02:20:30;14.40;99.90
6106;DHT22;3083;51.508;7.966;2022-08-21T02:22:57;14.40;99.90
6106;DHT22;3083;51.508;7.966;2022-08-21T02:25:25;14.40;99.90
6106;DHT22;3083;51.508;7.966;2022-08-21T02:27:52;14.40;99.90
6106;DHT22;3083;51.508;7.966;2022-08-21T02:30:24;14.50;99.90
6106;DHT22;3083;51.508;7.966;2022-08-21T02:32:52;14.50;99.90
6106;DHT22;3083;51.508;7.966;2022-08-21T02:35:19;14.50;99.90
6106;DHT22;3083;51.508;7.966;2022-08-21T02:37:49;14.50;99.90
6106;DHT22;3083;51.508;7.966;2022-08-21T02:40:19;14.50;99.90
6106;DHT22;3083;51.508;7.966;2022-08-21T02:42:46;14.60;99.90
6106;DHT22;3083;51.508;7.966;2022-08-21T02:45:14;14.60;99.90
6106;DHT22;3083;51.508;7.966;2022-08-21T02:47:48;14.60;99.90
6106;DHT22;3083;51.508;7.966;2022-08-21T02:50:18;14.60;99.90
6106;DHT22;3083;51.508;7.966;2022-08-21T02:52:46;14.60;99.90
6106;DHT22;3083;51.508;7.966;2022-08-21T02:55:13;14.60;99.90
6106;DHT22;3083;51.508;7.966;2022-08-21T02:57:40;14.60;99.90
6106;DHT22;3083;51.508;7.966;2022-08-21T03:00:08;14.70;99.90
6106;DHT22;3083;51.508;7.966;2022-08-21T03:02:36;14.70;99.90
6106;DHT22;3083;51.508;7.966;2022-08-21T03:05:06;14.80;99.90
6106;DHT22;3083;51.508;7.966;2022-08-21T03:07:33;14.80;99.90
6106;DHT22;3083;51.508;7.966;2022-08-21T03:10:00;14.80;99.90
6106;DHT22;3083;51.508;7.966;2022-08-21T03:12:27;14.80;99.90
6106;DHT22;3083;51.508;7.966;2022-08-21T03:14:54;14.80;99.90
6106;DHT22;3083;51.508;7.966;2022-08-21T03:17:21;14.80;99.90
6106;DHT22;3083;51.508;7.966;2022-08-21T03:19:48;14.80;99.90
6106;DHT22;3083;51.508;7.966;2022-08-21T03:22:16;14.80;99.90
6106;DHT22;3083;51.508;7.966;2022-08-21T03:24:43;14.80;99.90
6106;DHT22;3083;51.508;7.966;2022-08-21T03:27:11;14.80;99.90
6106;DHT22;3083;51.508;7.966;2022-08-21T03:29:39;14.80;99.90
6106;DHT22;3083;51.508;7.966;2022-08-21T03:32:06;14.80;99.90
6106;DHT22;3083;51.508;7.966;2022-08-21T03:34:34;14.80;99.90
6106;DHT22;3083;51.508;7.966;2022-08-21T03:37:02;14.90;99.90
6106;DHT22;3083;51.508;7.966;2022-08-21T03:39:30;14.90;99.90
6106;DHT22;3083;51.508;7.966;2022-08-21T03:41:58;14.90;99.90
6106;DHT22;3083;51.508;7.966;2022-08-21T03:44:25;14.80;99.90
6106;DHT22;3083;51.508;7.966;2022-08-21T03:46:56;14.80;99.90
6106;DHT22;3083;51.508;7.966;2022-08-21T03:49:23;14.80;99.90
6106;DHT22;3083;51.508;7.966;2022-08-21T03:51:50;14.80;99.90
6106;DHT22;3083;51.508;7.966;2022-08-21T03:54:17;14.80;99.90
6106;DHT22;3083;51.508;7.966;2022-08-21T03:56:46;14.70;99.90
6106;DHT22;3083;51.508;7.966;2022-08-21T03:59:13;14.70;99.90
6106;DHT22;3083;51.508;7.966;2022-08-21T04:01:40;14.70;99.90
6106;DHT22;3083;51.508;7.966;2022-08-21T04:04:17;14.70;99.90
6106;DHT22;3083;51.508;7.966;2022-08-21T04:06:44;14.60;99.90
6106;DHT22;3083;51.508;7.966;2022-08-21T04:09:11;14.60;99.90
6106;DHT22;3083;51.508;7.966;2022-08-21T04:11:38;14.60;99.90
6106;DHT22;3083;51.508;7.966;2022-08-21T04:14:06;14.60;99.90
6106;DHT22;3083;51.508;7.966;2022-08-21T04:16:33;14.60;99.90
6106;DHT22;3083;51.508;7.966;2022-08-21T04:19:00;14.60;99.90
6106;DHT22;3083;51.508;7.966;2022-08-21T04:21:27;14.60;99.90
6106;DHT22;3083;51.508;7.966;2022-08-21T04:23:55;14.60;99.90
6106;DHT22;3083;51.508;7.966;2022-08-21T04:26:22;14.60;99.90
6106;DHT22;3083;51.508;7.966;2022-08-21T04:28:49;14.60;99.90
6106;DHT22;3083;51.508;7.966;2022-08-21T04:31:17;14.50;99.90
6106;DHT22;3083;51.508;7.966;2022-08-21T04:33:44;14.50;99.90
6106;DHT22;3083;51.508;7.966;2022-08-21T04:36:11;14.40;99.90
6106;DHT22;3083;51.508;7.966;2022-08-21T04:38:38;14.30;99.90
6106;DHT22;3083;51.508;7.966;2022-08-21T04:41:05;14.30;99.90
6106;DHT22;3083;51.508;7.966;2022-08-21T04:43:32;14.20;99.90
6106;DHT22;3083;51.508;7.966;2022-08-21T04:45:59;14.20;99.90
6106;DHT22;3083;51.508;7.966;2022-08-21T04:48:28;14.20;99.90
6106;DHT22;3083;51.508;7.966;2022-08-21T04:50:58;14.10;99.90
6106;DHT22;3083;51.508;7.966;2022-08-21T04:53:31;14.10;99.90
6106;DHT22;3083;51.508;7.966;2022-08-21T04:56:03;14.20;99.90
6106;DHT22;3083;51.508;7.966;2022-08-21T04:58:31;14.10;99.90
6106;DHT22;3083;51.508;7.966;2022-08-21T05:01:00;14.10;99.90
6106;DHT22;3083;51.508;7.966;2022-08-21T05:03:29;14.20;99.90
6106;DHT22;3083;51.508;7.966;2022-08-21T05:05:57;14.20;99.90
6106;DHT22;3083;51.508;7.966;2022-08-21T05:08:25;14.30;99.90
6106;DHT22;3083;51.508;7.966;2022-08-21T05:10:54;14.30;99.90
6106;DHT22;3083;51.508;7.966;2022-08-21T05:13:21;14.40;99.90
6106;DHT22;3083;51.508;7.966;2022-08-21T05:15:48;14.50;99.90
6106;DHT22;3083;51.508;7.966;2022-08-21T05:18:15;14.50;99.90
6106;DHT22;3083;51.508;7.966;2022-08-21T05:20:43;14.60;99.90
6106;DHT22;3083;51.508;7.966;2022-08-21T05:23:13;14.70;99.90
6106;DHT22;3083;51.508;7.966;2022-08-21T05:25:41;14.90;99.90
6106;DHT22;3083;51.508;7.966;2022-08-21T05:28:09;15.00;99.90
6106;DHT22;3083;51.508;7.966;2022-08-21T05:30:37;15.20;99.90
6106;DHT22;3083;51.508;7.966;2022-08-21T05:33:06;15.50;99.90
6106;DHT22;3083;51.508;7.966;2022-08-21T05:35:34;15.70;99.90
6106;DHT22;3083;51.508;7.966;2022-08-21T05:38:03;16.10;99.90
6106;DHT22;3083;51.508;7.966;2022-08-21T05:40:30;16.40;99.90
6106;DHT22;3083;51.508;7.966;2022-08-21T05:42:58;16.70;99.90
6106;DHT22;3083;51.508;7.966;2022-08-21T05:45:27;16.90;99.90
6106;DHT22;3083;51.508;7.966;2022-08-21T05:47:55;17.20;99.90
6106;DHT22;3083;51.508;7.966;2022-08-21T05:50:22;17.60;99.90
6106;DHT22;3083;51.508;7.966;2022-08-21T05:52:49;17.90;99.90
6106;DHT22;3083;51.508;7.966;2022-08-21T05:55:17;18.30;99.90
6106;DHT22;3083;51.508;7.966;2022-08-21T05:57:44;18.60;99.90
6106;DHT22;3083;51.508;7.966;2022-08-21T06:00:12;18.90;99.90
6106;DHT22;3083;51.508;7.966;2022-08-21T06:02:39;19.30;99.90
6106;DHT22;3083;51.508;7.966;2022-08-21T06:05:07;19.60;99.90
6106;DHT22;3083;51.508;7.966;2022-08-21T06:07:34;20.00;99.90
6106;DHT22;3083;51.508;7.966;2022-08-21T06:10:01;20.30;99.90
6106;DHT22;3083;51.508;7.966;2022-08-21T06:12:29;20.70;99.90
6106;DHT22;3083;51.508;7.966;2022-08-21T06:14:56;21.10;99.90
6106;DHT22;3083;51.508;7.966;2022-08-21T06:17:23;21.40;99.90
6106;DHT22;3083;51.508;7.966;2022-08-21T06:19:51;21.70;99.90
6106;DHT22;3083;51.508;7.966;2022-08-21T06:22:18;22.00;99.90
6106;DHT22;3083;51.508;7.966;2022-08-21T06:24:45;22.30;99.90
6106;DHT22;3083;51.508;7.966;2022-08-21T06:27:13;22.60;99.90
6106;DHT22;3083;51.508;7.966;2022-08-21T06:29:42;22.90;99.90
6106;DHT22;3083;51.508;7.966;2022-08-21T06:32:10;23.00;99.90
6106;DHT22;3083;51.508;7.966;2022-08-21T06:34:38;23.10;99.90
6106;DHT22;3083;51.508;7.966;2022-08-21T06:37:06;23.20;99.90
6106;DHT22;3083;51.508;7.966;2022-08-21T06:39:33;23.30;99.90
6106;DHT22;3083;51.508;7.966;2022-08-21T06:42:01;23.30;99.90
6106;DHT22;3083;51.508;7.966;2022-08-21T06:44:28;23.40;99.90
6106;DHT22;3083;51.508;7.966;2022-08-21T06:46:57;23.60;99.90
6106;DHT22;3083;51.508;7.966;2022-08-21T06:49:24;23.80;99.90
6106;DHT22;3083;51.508;7.966;2022-08-21T06:51:51;23.90;99.90
6106;DHT22;3083;51.508;7.966;2022-08-21T06:54:17;24.00;99.90
6106;DHT22;3083;51.508;7.966;2022-08-21T06:56:44;24.20;99.90
6106;DHT22;3083;51.508;7.966;2022-08-21T06:59:11;24.40;99.90
6106;DHT22;3083;51.508;7.966;2022-08-21T07:01:38;24.50;99.90
6106;DHT22;3083;51.508;7.966;2022-08-21T07:04:07;24.70;99.90
6106;DHT22;3083;51.508;7.966;2022-08-21T07:06:34;25.00;99.90
6106;DHT22;3083;51.508;7.966;2022-08-21T07:09:01;25.10;99.90
6106;DHT22;3083;51.508;7.966;2022-08-21T07:11:29;25.20;99.90
6106;DHT22;3083;51.508;7.966;2022-08-21T07:13:56;25.30;99.90
6106;DHT22;3083;51.508;7.966;2022-08-21T07:16:24;25.40;99.90
6106;DHT22;3083;51.508;7.966;2022-08-21T07:18:51;25.60;99.90
6106;DHT22;3083;51.508;7.966;2022-08-21T07:21:20;25.70;99.90
6106;DHT22;3083;51.508;7.966;2022-08-21T07:23:49;25.80;99.90
6106;DHT22;3083;51.508;7.966;2022-08-21T07:26:18;25.90;99.90
6106;DHT22;3083;51.508;7.966;2022-08-21T07:28:46;26.00;99.90
6106;DHT22;3083;51.508;7.966;2022-08-21T07:31:15;26.00;99.90
6106;DHT22;3083;51.508;7.966;2022-08-21T07:33:42;26.30;99.90
6106;DHT22;3083;51.508;7.966;2022-08-21T07:36:10;26.30;99.90
6106;DHT22;3083;51.508;7.966;2022-08-21T07:38:38;26.60;99.90
6106;DHT22;3083;51.508;7.966;2022-08-21T07:41:10;26.80;99.90
6106;DHT22;3083;51.508;7.966;2022-08-21T07:43:39;26.90;99.90
6106;DHT22;3083;51.508;7.966;2022-08-21T07:46:06;27.20;99.90
6106;DHT22;3083;51.508;7.966;2022-08-21T07:48:33;27.30;99.90
6106;DHT22;3083;51.508;7.966;2022-08-21T07:51:04;27.30;99.90
6106;DHT22;3083;51.508;7.966;2022-08-21T07:53:32;27.40;99.90
6106;DHT22;3083;51.508;7.966;2022-08-21T07:56:00;27.60;99.90
6106;DHT22;3083;51.508;7.966;2022-08-21T07:58:27;27.50;99.90
6106;DHT22;3083;51.508;7.966;2022-08-21T08:00:54;27.60;99.90
6106;DHT22;3083;51.508;7.966;2022-08-21T08:03:21;27.60;99.90
6106;DHT22;3083;51.508;7.966;2022-08-21T08:05:48;27.50;99.90
6106;DHT22;3083;51.508;7.966;2022-08-21T08:08:15;27.30;99.90
6106;DHT22;3083;51.508;7.966;2022-08-21T08:10:43;27.20;99.90
6106;DHT22;3083;51.508;7.966;2022-08-21T08:13:12;27.30;99.90
6106;DHT22;3083;51.508;7.966;2022-08-21T08:15:38;27.60;99.90
6106;DHT22;3083;51.508;7.966;2022-08-21T08:18:05;27.90;99.90
6106;DHT22;3083;51.508;7.966;2022-08-21T08:20:33;27.90;99.90
6106;DHT22;3083;51.508;7.966;2022-08-21T08:23:00;27.80;99.90
6106;DHT22;3083;51.508;7.966;2022-08-21T08:25:27;27.90;99.90
6106;DHT22;3083;51.508;7.966;2022-08-21T08:27:55;27.80;99.90
6106;DHT22;3083;51.508;7.966;2022-08-21T08:30:23;27.80;99.90
6106;DHT22;3083;51.508;7.966;2022-08-21T08:32:50;28.00;99.90
6106;DHT22;3083;51.508;7.966;2022-08-21T08:35:17;28.00;99.90
6106;DHT22;3083;51.508;7.966;2022-08-21T08:37:44;28.10;99.90
6106;DHT22;3083;51.508;7.966;2022-08-21T08:40:14;28.20;99.90
6106;DHT22;3083;51.508;7.966;2022-08-21T08:42:45;28.00;99.90
6106;DHT22;3083;51.508;7.966;2022-08-21T08:45:16;27.70;99.90
6106;DHT22;3083;51.508;7.966;2022-08-21T08:47:49;27.80;99.90
6106;DHT22;3083;51.508;7.966;2022-08-21T08:50:26;27.80;99.90
6106;DHT22;3083;51.508;7.966;2022-08-21T08:52:59;27.50;99.90
6106;DHT22;3083;51.508;7.966;2022-08-21T08:55:30;27.20;99.90
6106;DHT22;3083;51.508;7.966;2022-08-21T08:58:00;27.20;99.90
6106;DHT22;3083;51.508;7.966;2022-08-21T09:00:28;27.20;99.90
6106;DHT22;3083;51.508;7.966;2022-08-21T09:02:59;27.30;99.90
6106;DHT22;3083;51.508;7.966;2022-08-21T09:05:29;27.40;99.90
6106;DHT22;3083;51.508;7.966;2022-08-21T09:08:15;27.60;99.90
6106;DHT22;3083;51.508;7.966;2022-08-21T09:10:54;27.50;99.90
6106;DHT22;3083;51.508;7.966;2022-08-21T09:13:32;27.70;99.90
6106;DHT22;3083;51.508;7.966;2022-08-21T09:16:08;27.90;99.90
6106;DHT22;3083;51.508;7.966;2022-08-21T09:18:46;28.20;99.90
6106;DHT22;3083;51.508;7.966;2022-08-21T09:21:22;28.60;99.90
6106;DHT22;3083;51.508;7.966;2022-08-21T09:24:00;28.70;99.90
6106;DHT22;3083;51.508;7.966;2022-08-21T09:26:31;28.70;99.90
6106;DHT22;3083;51.508;7.966;2022-08-21T09:29:03;28.70;99.90
6106;DHT22;3083;51.508;7.966;2022-08-21T09:31:33;28.70;99.90
6106;DHT22;3083;51.508;7.966;2022-08-21T09:34:06;28.80;99.90
6106;DHT22;3083;51.508;7.966;2022-08-21T09:36:38;28.70;99.90
6106;DHT22;3083;51.508;7.966;2022-08-21T09:39:06;29.00;99.90
6106;DHT22;3083;51.508;7.966;2022-08-21T09:41:35;29.20;99.90
6106;DHT22;3083;51.508;7.966;2022-08-21T09:44:03;29.20;99.90
6106;DHT22;3083;51.508;7.966;2022-08-21T09:46:31;29.30;99.90
6106;DHT22;3083;51.508;7.966;2022-08-21T09:49:00;29.20;99.90
6106;DHT22;3083;51.508;7.966;2022-08-21T09:51:30;28.90;99.90
6106;DHT22;3083;51.508;7.966;2022-08-21T09:54:10;28.70;99.90
6106;DHT22;3083;51.508;7.966;2022-08-21T09:56:51;28.70;99.90
6106;DHT22;3083;51.508;7.966;2022-08-21T09:59:36;28.60;99.90
6106;DHT22;3083;51.508;7.966;2022-08-21T10:02:26;28.30;99.90
6106;DHT22;3083;51.508;7.966;2022-08-21T10:04:55;28.10;99.90
6106;DHT22;3083;51.508;7.966;2022-08-21T10:07:26;27.80;99.90
6106;DHT22;3083;51.508;7.966;2022-08-21T10:10:06;27.70;99.90
6106;DHT22;3083;51.508;7.966;2022-08-21T10:12:42;27.80;99.90
6106;DHT22;3083;51.508;7.966;2022-08-21T10:15:17;28.20;99.90
6106;DHT22;3083;51.508;7.966;2022-08-21T10:17:53;28.20;99.90
6106;DHT22;3083;51.508;7.966;2022-08-21T10:20:27;28.00;99.90
6106;DHT22;3083;51.508;7.966;2022-08-21T10:23:03;28.00;99.90
6106;DHT22;3083;51.508;7.966;2022-08-21T10:25:39;27.90;99.90
6106;DHT22;3083;51.508;7.966;2022-08-21T10:28:13;28.20;99.90
6106;DHT22;3083;51.508;7.966;2022-08-21T10:30:48;28.20;99.90
6106;DHT22;3083;51.508;7.966;2022-08-21T10:33:32;28.10;99.90
6106;DHT22;3083;51.508;7.966;2022-08-21T10:36:06;28.10;99.90
6106;DHT22;3083;51.508;7.966;2022-08-21T10:39:10;28.10;99.90
6106;DHT22;3083;51.508;7.966;2022-08-21T10:41:54;28.00;99.90
6106;DHT22;3083;51.508;7.966;2022-08-21T10:44:32;27.80;99.90
6106;DHT22;3083;51.508;7.966;2022-08-21T10:47:07;27.80;99.90
6106;DHT22;3083;51.508;7.966;2022-08-21T10:49:39;27.80;99.90
6106;DHT22;3083;51.508;7.966;2022-08-21T10:52:36;27.80;99.90
6106;DHT22;3083;51.508;7.966;2022-08-21T10:55:14;27.90;99.90
6106;DHT22;3083;51.508;7.966;2022-08-21T10:57:46;28.10;99.90
6106;DHT22;3083;51.508;7.966;2022-08-21T11:00:17;28.20;99.90
6106;DHT22;3083;51.508;7.966;2022-08-21T11:02:50;28.40;99.90
6106;DHT22;3083;51.508;7.966;2022-08-21T11:05:23;28.50;99.90
6106;DHT22;3083;51.508;7.966;2022-08-21T11:07:54;28.80;99.90
6106;DHT22;3083;51.508;7.966;2022-08-21T11:10:25;28.90;99.90
6106;DHT22;3083;51.508;7.966;2022-08-21T11:12:56;28.90;99.90
6106;DHT22;3083;51.508;7.966;2022-08-21T11:15:36;28.90;99.90
6106;DHT22;3083;51.508;7.966;2022-08-21T11:18:16;29.00;99.90
6106;DHT22;3083;51.508;7.966;2022-08-21T11:20:51;29.10;99.90
6106;DHT22;3083;51.508;7.966;2022-08-21T11:23:23;29.20;99.90
6106;DHT22;3083;51.508;7.966;2022-08-21T11:25:55;29.10;99.90
6106;DHT22;3083;51.508;7.966;2022-08-21T11:28:26;28.90;99.90
6106;DHT22;3083;51.508;7.966;2022-08-21T11:31:02;29.00;99.90
6106;DHT22;3083;51.508;7.966;2022-08-21T11:33:44;29.10;99.90
6106;DHT22;3083;51.508;7.966;2022-08-21T11:36:22;29.00;99.90
6106;DHT22;3083;51.508;7.966;2022-08-21T11:38:57;29.00;99.90
6106;DHT22;3083;51.508;7.966;2022-08-21T11:41:32;29.00;99.90
6106;DHT22;3083;51.508;7.966;2022-08-21T11:44:09;28.90;99.90
6106;DHT22;3083;51.508;7.966;2022-08-21T11:46:43;29.00;99.90
6106;DHT22;3083;51.508;7.966;2022-08-21T11:49:42;29.00;99.90
6106;DHT22;3083;51.508;7.966;2022-08-21T11:52:18;29.00;99.90
6106;DHT22;3083;51.508;7.966;2022-08-21T11:55:01;29.00;99.90
6106;DHT22;3083;51.508;7.966;2022-08-21T11:57:35;29.10;99.90
6106;DHT22;3083;51.508;7.966;2022-08-21T12:00:07;29.30;99.90
6106;DHT22;3083;51.508;7.966;2022-08-21T12:02:41;29.40;99.90
6106;DHT22;3083;51.508;7.966;2022-08-21T12:05:12;29.50;99.90
6106;DHT22;3083;51.508;7.966;2022-08-21T12:08:00;29.40;99.90
6106;DHT22;3083;51.508;7.966;2022-08-21T12:10:33;29.30;99.90
6106;DHT22;3083;51.508;7.966;2022-08-21T12:13:10;29.20;99.90
6106;DHT22;3083;51.508;7.966;2022-08-21T12:15:39;29.20;99.90
6106;DHT22;3083;51.508;7.966;2022-08-21T12:18:20;29.20;99.90
6106;DHT22;3083;51.508;7.966;2022-08-21T12:21:03;29.20;99.90
6106;DHT22;3083;51.508;7.966;2022-08-21T12:23:32;29.10;99.90
6106;DHT22;3083;51.508;7.966;2022-08-21T12:26:03;28.90;99.90
6106;DHT22;3083;51.508;7.966;2022-08-21T12:28:32;28.70;99.90
6106;DHT22;3083;51.508;7.966;2022-08-21T12:30:59;28.50;99.90
6106;DHT22;3083;51.508;7.966;2022-08-21T12:33:30;28.50;99.90
6106;DHT22;3083;51.508;7.966;2022-08-21T12:36:05;28.60;99.90
6106;DHT22;3083;51.508;7.966;2022-08-21T12:38:39;28.70;99.90
6106;DHT22;3083;51.508;7.966;2022-08-21T12:41:12;28.70;99.90
6106;DHT22;3083;51.508;7.966;2022-08-21T12:43:45;28.60;99.90
6106;DHT22;3083;51.508;7.966;2022-08-21T12:46:17;28.60;99.90
6106;DHT22;3083;51.508;7.966;2022-08-21T12:48:48;28.50;99.90
6106;DHT22;3083;51.508;7.966;2022-08-21T12:51:23;28.60;99.90
6106;DHT22;3083;51.508;7.966;2022-08-21T12:53:52;28.70;99.90
6106;DHT22;3083;51.508;7.966;2022-08-21T12:56:23;28.70;99.90
6106;DHT22;3083;51.508;7.966;2022-08-21T12:58:55;28.80;99.90
6106;DHT22;3083;51.508;7.966;2022-08-21T13:01:27;28.80;99.90
6106;DHT22;3083;51.508;7.966;2022-08-21T13:03:58;28.90;99.90
6106;DHT22;3083;51.508;7.966;2022-08-21T13:06:29;29.00;99.90
6106;DHT22;3083;51.508;7.966;2022-08-21T13:09:04;29.10;99.90
6106;DHT22;3083;51.508;7.966;2022-08-21T13:11:32;29.20;99.90
6106;DHT22;3083;51.508;7.966;2022-08-21T13:14:02;29.20;99.90
6106;DHT22;3083;51.508;7.966;2022-08-21T13:16:30;29.20;99.90
6106;DHT22;3083;51.508;7.966;2022-08-21T13:19:00;29.20;99.90
6106;DHT22;3083;51.508;7.966;2022-08-21T13:21:30;29.00;99.90
6106;DHT22;3083;51.508;7.966;2022-08-21T13:24:13;28.90;99.90
6106;DHT22;3083;51.508;7.966;2022-08-21T13:26:41;28.90;99.90
6106;DHT22;3083;51.508;7.966;2022-08-21T13:29:14;28.70;99.90
6106;DHT22;3083;51.508;7.966;2022-08-21T13:31:47;28.70;99.90
6106;DHT22;3083;51.508;7.966;2022-08-21T13:34:15;28.60;99.90
6106;DHT22;3083;51.508;7.966;2022-08-21T13:36:43;28.70;99.90
6106;DHT22;3083;51.508;7.966;2022-08-21T13:39:16;28.70;99.90
6106;DHT22;3083;51.508;7.966;2022-08-21T13:41:47;28.70;99.90
6106;DHT22;3083;51.508;7.966;2022-08-21T13:44:18;28.50;99.90
6106;DHT22;3083;51.508;7.966;2022-08-21T13:46:46;28.50;99.90
6106;DHT22;3083;51.508;7.966;2022-08-21T13:49:16;28.50;99.90
6106;DHT22;3083;51.508;7.966;2022-08-21T13:51:44;28.50;99.90
6106;DHT22;3083;51.508;7.966;2022-08-21T13:54:24;28.50;99.90
6106;DHT22;3083;51.508;7.966;2022-08-21T13:56:53;28.50;99.90
6106;DHT22;3083;51.508;7.966;2022-08-21T13:59:32;28.50;99.90
6106;DHT22;3083;51.508;7.966;2022-08-21T14:02:01;28.50;99.90
6106;DHT22;3083;51.508;7.966;2022-08-21T14:04:36;28.50;99.90
6106;DHT22;3083;51.508;7.966;2022-08-21T14:07:17;28.60;99.90
6106;DHT22;3083;51.508;7.966;2022-08-21T14:09:45;28.60;99.90
6106;DHT22;3083;51.508;7.966;2022-08-21T14:12:15;28.50;99.90
6106;DHT22;3083;51.508;7.966;2022-08-21T14:14:44;28.50;99.90
6106;DHT22;3083;51.508;7.966;2022-08-21T14:17:16;28.50;99.90
6106;DHT22;3083;51.508;7.966;2022-08-21T14:19:52;28.40;99.90
6106;DHT22;3083;51.508;7.966;2022-08-21T14:22:23;28.40;99.90
6106;DHT22;3083;51.508;7.966;2022-08-21T14:24:59;28.40;99.90
6106;DHT22;3083;51.508;7.966;2022-08-21T14:27:29;28.30;99.90
6106;DHT22;3083;51.508;7.966;2022-08-21T14:30:08;28.30;99.90
6106;DHT22;3083;51.508;7.966;2022-08-21T14:32:38;28.30;99.90
6106;DHT22;3083;51.508;7.966;2022-08-21T14:35:06;28.20;99.90
6106;DHT22;3083;51.508;7.966;2022-08-21T14:37:33;28.20;99.90
6106;DHT22;3083;51.508;7.966;2022-08-21T14:40:00;28.10;99.90
6106;DHT22;3083;51.508;7.966;2022-08-21T14:42:28;28.10;99.90
6106;DHT22;3083;51.508;7.966;2022-08-21T14:44:59;27.90;99.90
6106;DHT22;3083;51.508;7.966;2022-08-21T14:47:28;27.70;99.90
6106;DHT22;3083;51.508;7.966;2022-08-21T14:49:55;27.60;99.90
6106;DHT22;3083;51.508;7.966;2022-08-21T14:52:22;27.50;99.90
6106;DHT22;3083;51.508;7.966;2022-08-21T14:54:49;27.50;99.90
6106;DHT22;3083;51.508;7.966;2022-08-21T14:57:16;27.40;99.90
6106;DHT22;3083;51.508;7.966;2022-08-21T14:59:44;27.40;99.90
6106;DHT22;3083;51.508;7.966;2022-08-21T15:02:11;27.40;99.90
6106;DHT22;3083;51.508;7.966;2022-08-21T15:04:39;27.30;99.90
6106;DHT22;3083;51.508;7.966;2022-08-21T15:07:07;27.30;99.90
6106;DHT22;3083;51.508;7.966;2022-08-21T15:09:34;27.30;99.90
6106;DHT22;3083;51.508;7.966;2022-08-21T15:12:02;27.20;99.90
6106;DHT22;3083;51.508;7.966;2022-08-21T15:14:32;27.10;99.90
6106;DHT22;3083;51.508;7.966;2022-08-21T15:16:59;26.90;99.90
6106;DHT22;3083;51.508;7.966;2022-08-21T15:19:29;26.70;99.90
6106;DHT22;3083;51.508;7.966;2022-08-21T15:21:57;26.50;99.90
6106;DHT22;3083;51.508;7.966;2022-08-21T15:24:25;26.40;99.90
6106;DHT22;3083;51.508;7.966;2022-08-21T15:26:52;26.20;99.90
6106;DHT22;3083;51.508;7.966;2022-08-21T15:29:20;26.10;99.90
6106;DHT22;3083;51.508;7.966;2022-08-21T15:31:53;25.90;99.90
6106;DHT22;3083;51.508;7.966;2022-08-21T15:34:21;25.70;99.90
6106;DHT22;3083;51.508;7.966;2022-08-21T15:36:48;25.60;99.90
6106;DHT22;3083;51.508;7.966;2022-08-21T15:39:16;25.50;99.90
6106;DHT22;3083;51.508;7.966;2022-08-21T15:41:44;25.30;99.90
6106;DHT22;3083;51.508;7.966;2022-08-21T15:44:12;25.20;99.90
6106;DHT22;3083;51.508;7.966;2022-08-21T15:46:40;25.10;99.90
6106;DHT22;3083;51.508;7.966;2022-08-21T15:49:10;25.10;99.90
6106;DHT22;3083;51.508;7.966;2022-08-21T15:51:37;25.10;99.90
6106;DHT22;3083;51.508;7.966;2022-08-21T15:54:04;25.00;99.90
6106;DHT22;3083;51.508;7.966;2022-08-21T15:56:36;25.00;99.90
6106;DHT22;3083;51.508;7.966;2022-08-21T15:59:06;25.00;99.90
6106;DHT22;3083;51.508;7.966;2022-08-21T16:01:34;25.00;99.90
6106;DHT22;3083;51.508;7.966;2022-08-21T16:04:02;25.00;99.90
6106;DHT22;3083;51.508;7.966;2022-08-21T16:06:30;25.00;99.90
6106;DHT22;3083;51.508;7.966;2022-08-21T16:08:57;25.00;99.90
6106;DHT22;3083;51.508;7.966;2022-08-21T16:11:25;25.00;99.90
6106;DHT22;3083;51.508;7.966;2022-08-21T16:13:54;25.00;99.90
6106;DHT22;3083;51.508;7.966;2022-08-21T16:16:22;25.00;99.90
6106;DHT22;3083;51.508;7.966;2022-08-21T16:18:50;25.00;99.90
6106;DHT22;3083;51.508;7.966;2022-08-21T16:21:18;25.00;99.90